sensor_id;sensor_type;location;lat;lon;timestamp;P1;durP1;ratioP1;P2;durP2;ratioP2
17494;SDS011;8864;51.970;4.614;2023-02-15T00:00:55;27.70;;;13.32;;
17494;SDS011;8864;51.970;4.614;2023-02-15T00:03:31;22.95;;;12.23;;
17494;SDS011;8864;51.970;4.614;2023-02-15T00:06:00;24.35;;;12.65;;
17494;SDS011;8864;51.970;4.614;2023-02-15T00:08:29;24.00;;;12.85;;
17494;SDS011;8864;51.970;4.614;2023-02-15T00:11:05;25.17;;;13.13;;
17494;SDS011;8864;51.970;4.614;2023-02-15T00:13:34;25.70;;;12.82;;
17494;SDS011;8864;51.970;4.614;2023-02-15T00:16:06;25.08;;;13.07;;
17494;SDS011;8864;51.970;4.614;2023-02-15T00:18:39;32.67;;;13.18;;
17494;SDS011;8864;51.970;4.614;2023-02-15T00:21:09;24.80;;;12.90;;
17494;SDS011;8864;51.970;4.614;2023-02-15T00:23:41;30.83;;;12.98;;
17494;SDS011;8864;51.970;4.614;2023-02-15T00:26:12;23.58;;;12.60;;
17494;SDS011;8864;51.970;4.614;2023-02-15T00:28:41;23.35;;;12.63;;
17494;SDS011;8864;51.970;4.614;2023-02-15T00:31:09;25.38;;;13.20;;
17494;SDS011;8864;51.970;4.614;2023-02-15T00:33:38;24.58;;;13.40;;
17494;SDS011;8864;51.970;4.614;2023-02-15T00:36:08;21.73;;;12.73;;
17494;SDS011;8864;51.970;4.614;2023-02-15T00:38:43;21.77;;;11.55;;
17494;SDS011;8864;51.970;4.614;2023-02-15T00:41:10;22.98;;;11.85;;
17494;SDS011;8864;51.970;4.614;2023-02-15T00:43:40;23.55;;;12.82;;
17494;SDS011;8864;51.970;4.614;2023-02-15T00:46:15;22.30;;;12.15;;
17494;SDS011;8864;51.970;4.614;2023-02-15T00:48:47;22.02;;;12.07;;
17494;SDS011;8864;51.970;4.614;2023-02-15T00:51:14;22.98;;;12.10;;
17494;SDS011;8864;51.970;4.614;2023-02-15T00:53:42;22.52;;;12.18;;
17494;SDS011;8864;51.970;4.614;2023-02-15T00:56:09;23.95;;;12.73;;
17494;SDS011;8864;51.970;4.614;2023-02-15T00:58:43;21.40;;;11.93;;
17494;SDS011;8864;51.970;4.614;2023-02-15T01:01:13;21.58;;;11.93;;
17494;SDS011;8864;51.970;4.614;2023-02-15T01:03:44;19.58;;;10.75;;
17494;SDS011;8864;51.970;4.614;2023-02-15T01:06:12;20.35;;;11.20;;
17494;SDS011;8864;51.970;4.614;2023-02-15T01:08:44;20.42;;;11.50;;
17494;SDS011;8864;51.970;4.614;2023-02-15T01:11:13;21.80;;;11.30;;
17494;SDS011;8864;51.970;4.614;2023-02-15T01:13:48;23.23;;;11.40;;
17494;SDS011;8864;51.970;4.614;2023-02-15T01:16:18;22.23;;;10.50;;
17494;SDS011;8864;51.970;4.614;2023-02-15T01:18:55;20.40;;;11.10;;
17494;SDS011;8864;51.970;4.614;2023-02-15T01:21:24;19.70;;;10.68;;
17494;SDS011;8864;51.970;4.614;2023-02-15T01:26:40;20.15;;;10.60;;
17494;SDS011;8864;51.970;4.614;2023-02-15T01:29:15;21.00;;;11.10;;
17494;SDS011;8864;51.970;4.614;2023-02-15T01:31:43;19.35;;;10.63;;
17494;SDS011;8864;51.970;4.614;2023-02-15T01:34:14;18.88;;;10.38;;
17494;SDS011;8864;51.970;4.614;2023-02-15T01:36:42;18.50;;;10.73;;
17494;SDS011;8864;51.970;4.614;2023-02-15T01:39:09;15.45;;;9.38;;
17494;SDS011;8864;51.970;4.614;2023-02-15T01:41:38;17.42;;;9.75;;
17494;SDS011;8864;51.970;4.614;2023-02-15T01:47:03;15.40;;;9.50;;
17494;SDS011;8864;51.970;4.614;2023-02-15T01:49:31;16.50;;;9.60;;
17494;SDS011;8864;51.970;4.614;2023-02-15T01:52:01;17.65;;;8.95;;
17494;SDS011;8864;51.970;4.614;2023-02-15T01:54:37;16.23;;;9.07;;
17494;SDS011;8864;51.970;4.614;2023-02-15T01:57:09;14.95;;;8.73;;
17494;SDS011;8864;51.970;4.614;2023-02-15T01:59:41;16.08;;;8.95;;
17494;SDS011;8864;51.970;4.614;2023-02-15T02:02:15;16.08;;;9.13;;
17494;SDS011;8864;51.970;4.614;2023-02-15T02:04:49;15.10;;;8.75;;
17494;SDS011;8864;51.970;4.614;2023-02-15T02:07:18;14.73;;;8.43;;
17494;SDS011;8864;51.970;4.614;2023-02-15T02:09:47;15.65;;;8.88;;
17494;SDS011;8864;51.970;4.614;2023-02-15T02:12:17;15.95;;;8.98;;
17494;SDS011;8864;51.970;4.614;2023-02-15T02:14:47;17.52;;;8.98;;
17494;SDS011;8864;51.970;4.614;2023-02-15T02:17:17;19.05;;;8.50;;
17494;SDS011;8864;51.970;4.614;2023-02-15T02:19:56;14.85;;;7.85;;
17494;SDS011;8864;51.970;4.614;2023-02-15T02:22:56;14.07;;;7.65;;
17494;SDS011;8864;51.970;4.614;2023-02-15T02:31:55;14.70;;;7.55;;
17494;SDS011;8864;51.970;4.614;2023-02-15T02:34:46;13.30;;;7.28;;
17494;SDS011;8864;51.970;4.614;2023-02-15T02:37:22;11.73;;;7.22;;
17494;SDS011;8864;51.970;4.614;2023-02-15T02:39:55;12.23;;;7.07;;
17494;SDS011;8864;51.970;4.614;2023-02-15T02:42:33;12.20;;;7.03;;
17494;SDS011;8864;51.970;4.614;2023-02-15T02:45:05;12.05;;;6.55;;
17494;SDS011;8864;51.970;4.614;2023-02-15T02:47:36;9.95;;;6.63;;
17494;SDS011;8864;51.970;4.614;2023-02-15T02:50:12;11.85;;;7.15;;
17494;SDS011;8864;51.970;4.614;2023-02-15T02:52:41;11.00;;;6.18;;
17494;SDS011;8864;51.970;4.614;2023-02-15T02:55:13;11.65;;;6.78;;
17494;SDS011;8864;51.970;4.614;2023-02-15T02:57:47;10.90;;;6.57;;
17494;SDS011;8864;51.970;4.614;2023-02-15T03:00:29;10.48;;;6.07;;
17494;SDS011;8864;51.970;4.614;2023-02-15T03:03:00;11.90;;;6.40;;
17494;SDS011;8864;51.970;4.614;2023-02-15T03:05:33;11.35;;;6.53;;
17494;SDS011;8864;51.970;4.614;2023-02-15T03:08:04;11.35;;;6.40;;
17494;SDS011;8864;51.970;4.614;2023-02-15T03:10:35;11.00;;;6.63;;
17494;SDS011;8864;51.970;4.614;2023-02-15T03:13:06;10.98;;;6.20;;
17494;SDS011;8864;51.970;4.614;2023-02-15T03:15:37;11.07;;;6.22;;
17494;SDS011;8864;51.970;4.614;2023-02-15T03:18:26;11.70;;;6.55;;
17494;SDS011;8864;51.970;4.614;2023-02-15T03:20:58;11.43;;;5.80;;
17494;SDS011;8864;51.970;4.614;2023-02-15T03:23:27;13.93;;;6.55;;
17494;SDS011;8864;51.970;4.614;2023-02-15T03:26:01;9.95;;;6.07;;
17494;SDS011;8864;51.970;4.614;2023-02-15T03:28:33;10.93;;;6.20;;
17494;SDS011;8864;51.970;4.614;2023-02-15T03:31:04;11.35;;;6.13;;
17494;SDS011;8864;51.970;4.614;2023-02-15T03:33:34;11.25;;;6.43;;
17494;SDS011;8864;51.970;4.614;2023-02-15T03:36:08;12.85;;;6.15;;
17494;SDS011;8864;51.970;4.614;2023-02-15T03:38:47;8.95;;;5.80;;
17494;SDS011;8864;51.970;4.614;2023-02-15T03:41:19;12.02;;;6.07;;
17494;SDS011;8864;51.970;4.614;2023-02-15T03:43:51;10.45;;;5.75;;
17494;SDS011;8864;51.970;4.614;2023-02-15T03:46:28;11.30;;;6.18;;
17494;SDS011;8864;51.970;4.614;2023-02-15T03:49:02;11.32;;;5.88;;
17494;SDS011;8864;51.970;4.614;2023-02-15T03:51:36;10.77;;;6.20;;
17494;SDS011;8864;51.970;4.614;2023-02-15T03:54:12;10.38;;;6.07;;
17494;SDS011;8864;51.970;4.614;2023-02-15T03:57:04;10.45;;;5.68;;
17494;SDS011;8864;51.970;4.614;2023-02-15T03:59:50;11.55;;;6.30;;
17494;SDS011;8864;51.970;4.614;2023-02-15T04:02:36;12.32;;;6.85;;
17494;SDS011;8864;51.970;4.614;2023-02-15T04:05:06;11.35;;;6.22;;
17494;SDS011;8864;51.970;4.614;2023-02-15T04:07:36;11.35;;;6.20;;
17494;SDS011;8864;51.970;4.614;2023-02-15T04:10:05;11.45;;;6.28;;
17494;SDS011;8864;51.970;4.614;2023-02-15T04:12:53;9.45;;;6.03;;
17494;SDS011;8864;51.970;4.614;2023-02-15T04:15:20;12.77;;;6.68;;
17494;SDS011;8864;51.970;4.614;2023-02-15T04:18:05;11.32;;;6.35;;
17494;SDS011;8864;51.970;4.614;2023-02-15T04:20:35;12.90;;;6.80;;
17494;SDS011;8864;51.970;4.614;2023-02-15T04:23:22;11.60;;;6.57;;
17494;SDS011;8864;51.970;4.614;2023-02-15T04:26:06;14.00;;;7.10;;
17494;SDS011;8864;51.970;4.614;2023-02-15T04:28:33;13.05;;;7.22;;
17494;SDS011;8864;51.970;4.614;2023-02-15T04:31:01;15.23;;;7.03;;
17494;SDS011;8864;51.970;4.614;2023-02-15T04:33:29;11.48;;;6.80;;
17494;SDS011;8864;51.970;4.614;2023-02-15T04:35:59;12.63;;;7.10;;
17494;SDS011;8864;51.970;4.614;2023-02-15T04:38:28;12.43;;;7.22;;
17494;SDS011;8864;51.970;4.614;2023-02-15T04:40:56;14.32;;;7.18;;
17494;SDS011;8864;51.970;4.614;2023-02-15T04:43:23;11.52;;;6.70;;
17494;SDS011;8864;51.970;4.614;2023-02-15T04:45:51;12.27;;;7.00;;
17494;SDS011;8864;51.970;4.614;2023-02-15T04:48:21;14.25;;;7.22;;
17494;SDS011;8864;51.970;4.614;2023-02-15T04:50:55;15.10;;;7.32;;
17494;SDS011;8864;51.970;4.614;2023-02-15T04:53:23;14.07;;;7.85;;
17494;SDS011;8864;51.970;4.614;2023-02-15T04:55:54;14.38;;;7.47;;
17494;SDS011;8864;51.970;4.614;2023-02-15T04:58:21;17.08;;;7.30;;
17494;SDS011;8864;51.970;4.614;2023-02-15T05:00:54;14.07;;;8.02;;
17494;SDS011;8864;51.970;4.614;2023-02-15T05:03:26;14.98;;;8.05;;
17494;SDS011;8864;51.970;4.614;2023-02-15T05:05:56;15.40;;;7.88;;
17494;SDS011;8864;51.970;4.614;2023-02-15T05:08:25;14.95;;;7.45;;
17494;SDS011;8864;51.970;4.614;2023-02-15T05:10:56;13.50;;;7.47;;
17494;SDS011;8864;51.970;4.614;2023-02-15T05:13:26;15.43;;;8.43;;
17494;SDS011;8864;51.970;4.614;2023-02-15T05:15:56;14.38;;;7.60;;
17494;SDS011;8864;51.970;4.614;2023-02-15T05:18:28;14.93;;;7.85;;
17494;SDS011;8864;51.970;4.614;2023-02-15T05:20:58;14.88;;;7.70;;
17494;SDS011;8864;51.970;4.614;2023-02-15T05:23:25;16.30;;;8.15;;
17494;SDS011;8864;51.970;4.614;2023-02-15T05:25:51;13.02;;;8.07;;
17494;SDS011;8864;51.970;4.614;2023-02-15T05:28:37;14.32;;;8.57;;
17494;SDS011;8864;51.970;4.614;2023-02-15T05:31:07;16.17;;;8.00;;
17494;SDS011;8864;51.970;4.614;2023-02-15T05:33:37;17.75;;;8.30;;
17494;SDS011;8864;51.970;4.614;2023-02-15T05:36:06;14.18;;;8.30;;
17494;SDS011;8864;51.970;4.614;2023-02-15T05:38:45;14.23;;;7.47;;
17494;SDS011;8864;51.970;4.614;2023-02-15T05:41:16;13.80;;;7.80;;
17494;SDS011;8864;51.970;4.614;2023-02-15T05:43:49;15.43;;;8.05;;
17494;SDS011;8864;51.970;4.614;2023-02-15T05:46:16;15.60;;;7.93;;
17494;SDS011;8864;51.970;4.614;2023-02-15T05:48:43;14.95;;;7.57;;
17494;SDS011;8864;51.970;4.614;2023-02-15T05:51:22;15.52;;;7.70;;
17494;SDS011;8864;51.970;4.614;2023-02-15T05:53:50;16.70;;;8.35;;
17494;SDS011;8864;51.970;4.614;2023-02-15T05:56:16;13.95;;;7.45;;
17494;SDS011;8864;51.970;4.614;2023-02-15T05:58:45;14.55;;;7.78;;
17494;SDS011;8864;51.970;4.614;2023-02-15T06:01:17;14.60;;;7.75;;
17494;SDS011;8864;51.970;4.614;2023-02-15T06:03:47;14.30;;;7.93;;
17494;SDS011;8864;51.970;4.614;2023-02-15T06:06:16;16.23;;;7.53;;
17494;SDS011;8864;51.970;4.614;2023-02-15T06:08:44;14.93;;;7.95;;
17494;SDS011;8864;51.970;4.614;2023-02-15T06:11:11;13.23;;;7.53;;
17494;SDS011;8864;51.970;4.614;2023-02-15T06:13:41;14.40;;;8.07;;
17494;SDS011;8864;51.970;4.614;2023-02-15T06:16:08;17.13;;;8.02;;
17494;SDS011;8864;51.970;4.614;2023-02-15T06:18:39;15.68;;;7.85;;
17494;SDS011;8864;51.970;4.614;2023-02-15T06:21:07;14.93;;;7.35;;
17494;SDS011;8864;51.970;4.614;2023-02-15T06:23:37;14.25;;;8.30;;
17494;SDS011;8864;51.970;4.614;2023-02-15T06:26:03;15.50;;;7.75;;
17494;SDS011;8864;51.970;4.614;2023-02-15T06:28:32;21.17;;;7.88;;
17494;SDS011;8864;51.970;4.614;2023-02-15T06:30:59;16.98;;;7.97;;
17494;SDS011;8864;51.970;4.614;2023-02-15T06:33:27;15.88;;;7.78;;
17494;SDS011;8864;51.970;4.614;2023-02-15T06:36:03;15.55;;;8.02;;
17494;SDS011;8864;51.970;4.614;2023-02-15T06:38:31;19.92;;;8.13;;
17494;SDS011;8864;51.970;4.614;2023-02-15T06:41:02;16.00;;;7.60;;
17494;SDS011;8864;51.970;4.614;2023-02-15T06:43:36;14.38;;;7.60;;
17494;SDS011;8864;51.970;4.614;2023-02-15T06:46:09;15.50;;;7.78;;
17494;SDS011;8864;51.970;4.614;2023-02-15T06:48:42;15.98;;;7.72;;
17494;SDS011;8864;51.970;4.614;2023-02-15T06:51:10;16.73;;;7.45;;
17494;SDS011;8864;51.970;4.614;2023-02-15T06:53:37;13.90;;;7.70;;
17494;SDS011;8864;51.970;4.614;2023-02-15T06:56:06;20.40;;;9.30;;
17494;SDS011;8864;51.970;4.614;2023-02-15T06:58:37;14.82;;;7.88;;
17494;SDS011;8864;51.970;4.614;2023-02-15T07:01:06;17.45;;;7.45;;
17494;SDS011;8864;51.970;4.614;2023-02-15T07:03:35;14.80;;;7.55;;
17494;SDS011;8864;51.970;4.614;2023-02-15T07:06:10;17.70;;;7.85;;
17494;SDS011;8864;51.970;4.614;2023-02-15T07:08:47;12.82;;;7.00;;
17494;SDS011;8864;51.970;4.614;2023-02-15T07:11:20;12.73;;;7.25;;
17494;SDS011;8864;51.970;4.614;2023-02-15T07:14:05;14.27;;;7.72;;
17494;SDS011;8864;51.970;4.614;2023-02-15T07:16:35;13.75;;;7.32;;
17494;SDS011;8864;51.970;4.614;2023-02-15T07:19:02;15.00;;;7.68;;
17494;SDS011;8864;51.970;4.614;2023-02-15T07:21:31;14.95;;;7.50;;
17494;SDS011;8864;51.970;4.614;2023-02-15T07:24:04;20.60;;;8.02;;
17494;SDS011;8864;51.970;4.614;2023-02-15T07:26:32;16.30;;;7.68;;
17494;SDS011;8864;51.970;4.614;2023-02-15T07:29:00;14.15;;;7.28;;
17494;SDS011;8864;51.970;4.614;2023-02-15T07:31:27;15.02;;;8.30;;
17494;SDS011;8864;51.970;4.614;2023-02-15T07:34:04;13.55;;;7.75;;
17494;SDS011;8864;51.970;4.614;2023-02-15T07:36:33;15.40;;;7.70;;
17494;SDS011;8864;51.970;4.614;2023-02-15T07:39:03;18.15;;;7.75;;
17494;SDS011;8864;51.970;4.614;2023-02-15T07:41:33;14.32;;;7.57;;
17494;SDS011;8864;51.970;4.614;2023-02-15T07:44:02;13.32;;;6.47;;
17494;SDS011;8864;51.970;4.614;2023-02-15T07:46:29;11.77;;;6.47;;
17494;SDS011;8864;51.970;4.614;2023-02-15T07:49:01;15.07;;;6.88;;
17494;SDS011;8864;51.970;4.614;2023-02-15T07:51:29;13.85;;;6.97;;
17494;SDS011;8864;51.970;4.614;2023-02-15T07:53:57;13.02;;;6.85;;
17494;SDS011;8864;51.970;4.614;2023-02-15T07:56:30;19.70;;;7.43;;
17494;SDS011;8864;51.970;4.614;2023-02-15T07:59:09;126.63;;;22.17;;
17494;SDS011;8864;51.970;4.614;2023-02-15T08:01:37;88.28;;;19.60;;
17494;SDS011;8864;51.970;4.614;2023-02-15T08:04:05;95.97;;;18.58;;
17494;SDS011;8864;51.970;4.614;2023-02-15T08:06:35;64.70;;;15.52;;
17494;SDS011;8864;51.970;4.614;2023-02-15T08:09:06;64.18;;;14.63;;
17494;SDS011;8864;51.970;4.614;2023-02-15T08:11:36;49.97;;;14.15;;
17494;SDS011;8864;51.970;4.614;2023-02-15T08:14:07;39.88;;;13.15;;
17494;SDS011;8864;51.970;4.614;2023-02-15T08:16:36;46.53;;;13.02;;
17494;SDS011;8864;51.970;4.614;2023-02-15T08:19:05;103.53;;;20.58;;
17494;SDS011;8864;51.970;4.614;2023-02-15T08:21:34;127.32;;;26.30;;
17494;SDS011;8864;51.970;4.614;2023-02-15T08:24:07;92.47;;;18.50;;
17494;SDS011;8864;51.970;4.614;2023-02-15T08:26:35;77.00;;;18.83;;
17494;SDS011;8864;51.970;4.614;2023-02-15T08:29:07;68.22;;;17.17;;
17494;SDS011;8864;51.970;4.614;2023-02-15T08:31:36;73.95;;;17.10;;
17494;SDS011;8864;51.970;4.614;2023-02-15T08:34:05;68.53;;;14.90;;
17494;SDS011;8864;51.970;4.614;2023-02-15T08:36:35;65.10;;;16.88;;
17494;SDS011;8864;51.970;4.614;2023-02-15T08:39:07;53.65;;;15.80;;
17494;SDS011;8864;51.970;4.614;2023-02-15T08:41:37;46.38;;;15.73;;
17494;SDS011;8864;51.970;4.614;2023-02-15T08:44:06;52.00;;;16.75;;
17494;SDS011;8864;51.970;4.614;2023-02-15T08:46:39;48.90;;;14.50;;
17494;SDS011;8864;51.970;4.614;2023-02-15T08:49:08;34.58;;;14.15;;
17494;SDS011;8864;51.970;4.614;2023-02-15T08:51:41;38.47;;;14.35;;
17494;SDS011;8864;51.970;4.614;2023-02-15T08:54:13;36.60;;;14.25;;
17494;SDS011;8864;51.970;4.614;2023-02-15T08:56:45;40.63;;;14.85;;
17494;SDS011;8864;51.970;4.614;2023-02-15T08:59:20;30.80;;;14.00;;
17494;SDS011;8864;51.970;4.614;2023-02-15T09:01:49;28.17;;;13.70;;
17494;SDS011;8864;51.970;4.614;2023-02-15T09:04:18;35.95;;;14.07;;
17494;SDS011;8864;51.970;4.614;2023-02-15T09:06:48;34.38;;;14.75;;
17494;SDS011;8864;51.970;4.614;2023-02-15T09:09:18;28.38;;;14.07;;
17494;SDS011;8864;51.970;4.614;2023-02-15T09:11:47;32.35;;;14.88;;
17494;SDS011;8864;51.970;4.614;2023-02-15T09:14:16;31.58;;;14.90;;
17494;SDS011;8864;51.970;4.614;2023-02-15T09:16:45;31.15;;;15.15;;
17494;SDS011;8864;51.970;4.614;2023-02-15T09:19:15;29.50;;;13.98;;
17494;SDS011;8864;51.970;4.614;2023-02-15T09:21:44;30.88;;;14.43;;
17494;SDS011;8864;51.970;4.614;2023-02-15T09:24:20;30.27;;;13.75;;
17494;SDS011;8864;51.970;4.614;2023-02-15T09:26:51;31.65;;;15.52;;
17494;SDS011;8864;51.970;4.614;2023-02-15T09:29:19;32.20;;;14.35;;
17494;SDS011;8864;51.970;4.614;2023-02-15T09:31:49;31.05;;;14.77;;
17494;SDS011;8864;51.970;4.614;2023-02-15T09:34:19;35.35;;;13.82;;
17494;SDS011;8864;51.970;4.614;2023-02-15T09:36:47;28.27;;;13.88;;
17494;SDS011;8864;51.970;4.614;2023-02-15T09:39:15;33.33;;;14.50;;
17494;SDS011;8864;51.970;4.614;2023-02-15T09:42:03;29.92;;;14.05;;
17494;SDS011;8864;51.970;4.614;2023-02-15T09:47:52;26.67;;;13.35;;
17494;SDS011;8864;51.970;4.614;2023-02-15T09:50:41;29.05;;;13.90;;
17494;SDS011;8864;51.970;4.614;2023-02-15T09:53:23;25.42;;;12.60;;
17494;SDS011;8864;51.970;4.614;2023-02-15T09:56:13;31.40;;;14.25;;
17494;SDS011;8864;51.970;4.614;2023-02-15T09:58:46;28.00;;;13.90;;
17494;SDS011;8864;51.970;4.614;2023-02-15T10:01:25;29.85;;;13.23;;
17494;SDS011;8864;51.970;4.614;2023-02-15T10:04:05;24.70;;;13.55;;
17494;SDS011;8864;51.970;4.614;2023-02-15T10:06:45;28.73;;;13.60;;
17494;SDS011;8864;51.970;4.614;2023-02-15T10:09:32;29.40;;;13.13;;
17494;SDS011;8864;51.970;4.614;2023-02-15T10:12:22;26.00;;;13.82;;
17494;SDS011;8864;51.970;4.614;2023-02-15T10:15:17;27.67;;;13.45;;
17494;SDS011;8864;51.970;4.614;2023-02-15T10:18:02;30.02;;;15.00;;
17494;SDS011;8864;51.970;4.614;2023-02-15T10:20:46;27.92;;;13.88;;
17494;SDS011;8864;51.970;4.614;2023-02-15T10:23:31;27.17;;;13.35;;
17494;SDS011;8864;51.970;4.614;2023-02-15T10:26:10;27.77;;;14.48;;
17494;SDS011;8864;51.970;4.614;2023-02-15T10:28:46;27.30;;;13.80;;
17494;SDS011;8864;51.970;4.614;2023-02-15T10:31:26;23.98;;;13.05;;
17494;SDS011;8864;51.970;4.614;2023-02-15T10:40:10;25.88;;;13.25;;
17494;SDS011;8864;51.970;4.614;2023-02-15T10:42:51;30.55;;;13.77;;
17494;SDS011;8864;51.970;4.614;2023-02-15T10:45:36;30.60;;;14.02;;
17494;SDS011;8864;51.970;4.614;2023-02-15T10:48:27;28.05;;;13.52;;
17494;SDS011;8864;51.970;4.614;2023-02-15T10:51:42;24.50;;;13.23;;
17494;SDS011;8864;51.970;4.614;2023-02-15T10:54:23;27.83;;;13.27;;
17494;SDS011;8864;51.970;4.614;2023-02-15T10:57:02;29.45;;;13.68;;
17494;SDS011;8864;51.970;4.614;2023-02-15T11:02:34;26.95;;;13.63;;
17494;SDS011;8864;51.970;4.614;2023-02-15T11:05:22;27.35;;;14.18;;
17494;SDS011;8864;51.970;4.614;2023-02-15T11:07:56;26.40;;;13.05;;
17494;SDS011;8864;51.970;4.614;2023-02-15T11:10:28;28.02;;;13.13;;
17494;SDS011;8864;51.970;4.614;2023-02-15T11:13:00;28.75;;;14.43;;
17494;SDS011;8864;51.970;4.614;2023-02-15T11:15:33;25.13;;;13.13;;
17494;SDS011;8864;51.970;4.614;2023-02-15T11:18:25;26.27;;;14.07;;
17494;SDS011;8864;51.970;4.614;2023-02-15T11:21:13;24.45;;;13.55;;
17494;SDS011;8864;51.970;4.614;2023-02-15T11:23:49;27.02;;;13.80;;
17494;SDS011;8864;51.970;4.614;2023-02-15T11:26:19;25.02;;;13.52;;
17494;SDS011;8864;51.970;4.614;2023-02-15T11:28:53;25.83;;;13.40;;
17494;SDS011;8864;51.970;4.614;2023-02-15T11:31:24;30.95;;;15.18;;
17494;SDS011;8864;51.970;4.614;2023-02-15T11:33:55;25.88;;;13.63;;
17494;SDS011;8864;51.970;4.614;2023-02-15T11:36:25;27.13;;;13.77;;
17494;SDS011;8864;51.970;4.614;2023-02-15T11:38:59;26.95;;;13.40;;
17494;SDS011;8864;51.970;4.614;2023-02-15T11:41:36;34.28;;;16.02;;
17494;SDS011;8864;51.970;4.614;2023-02-15T11:44:10;32.25;;;15.55;;
17494;SDS011;8864;51.970;4.614;2023-02-15T11:46:41;30.35;;;15.02;;
17494;SDS011;8864;51.970;4.614;2023-02-15T11:49:20;25.10;;;14.50;;
17494;SDS011;8864;51.970;4.614;2023-02-15T11:51:50;29.92;;;15.25;;
17494;SDS011;8864;51.970;4.614;2023-02-15T11:54:18;27.83;;;14.40;;
17494;SDS011;8864;51.970;4.614;2023-02-15T11:56:48;31.50;;;14.63;;
17494;SDS011;8864;51.970;4.614;2023-02-15T11:59:17;29.38;;;14.55;;
17494;SDS011;8864;51.970;4.614;2023-02-15T12:01:54;25.25;;;13.63;;
17494;SDS011;8864;51.970;4.614;2023-02-15T12:04:23;28.10;;;13.75;;
17494;SDS011;8864;51.970;4.614;2023-02-15T12:06:57;27.38;;;13.73;;
17494;SDS011;8864;51.970;4.614;2023-02-15T12:09:33;27.77;;;13.38;;
17494;SDS011;8864;51.970;4.614;2023-02-15T12:12:21;28.75;;;13.60;;
17494;SDS011;8864;51.970;4.614;2023-02-15T12:14:51;25.27;;;13.52;;
17494;SDS011;8864;51.970;4.614;2023-02-15T12:17:20;26.38;;;14.05;;
17494;SDS011;8864;51.970;4.614;2023-02-15T12:19:51;26.75;;;13.32;;
17494;SDS011;8864;51.970;4.614;2023-02-15T12:22:22;27.42;;;13.65;;
17494;SDS011;8864;51.970;4.614;2023-02-15T12:24:53;27.30;;;13.52;;
17494;SDS011;8864;51.970;4.614;2023-02-15T12:27:23;24.75;;;12.70;;
17494;SDS011;8864;51.970;4.614;2023-02-15T12:29:57;26.23;;;12.85;;
17494;SDS011;8864;51.970;4.614;2023-02-15T12:32:26;24.10;;;12.32;;
17494;SDS011;8864;51.970;4.614;2023-02-15T12:34:59;23.52;;;12.55;;
17494;SDS011;8864;51.970;4.614;2023-02-15T12:37:34;20.70;;;11.73;;
17494;SDS011;8864;51.970;4.614;2023-02-15T12:40:18;25.00;;;12.52;;
17494;SDS011;8864;51.970;4.614;2023-02-15T12:42:47;25.27;;;12.20;;
17494;SDS011;8864;51.970;4.614;2023-02-15T12:45:21;25.20;;;11.68;;
17494;SDS011;8864;51.970;4.614;2023-02-15T12:50:43;22.13;;;10.75;;
17494;SDS011;8864;51.970;4.614;2023-02-15T12:53:15;21.00;;;11.05;;
17494;SDS011;8864;51.970;4.614;2023-02-15T12:55:52;21.10;;;10.48;;
17494;SDS011;8864;51.970;4.614;2023-02-15T12:58:21;22.50;;;10.85;;
17494;SDS011;8864;51.970;4.614;2023-02-15T13:01:01;18.77;;;10.55;;
17494;SDS011;8864;51.970;4.614;2023-02-15T13:03:30;17.52;;;9.75;;
17494;SDS011;8864;51.970;4.614;2023-02-15T13:06:01;18.38;;;9.90;;
17494;SDS011;8864;51.970;4.614;2023-02-15T13:08:33;19.08;;;9.95;;
17494;SDS011;8864;51.970;4.614;2023-02-15T13:11:10;19.13;;;9.90;;
17494;SDS011;8864;51.970;4.614;2023-02-15T13:13:45;22.33;;;10.50;;
17494;SDS011;8864;51.970;4.614;2023-02-15T13:16:19;20.83;;;10.32;;
17494;SDS011;8864;51.970;4.614;2023-02-15T13:18:57;16.20;;;8.95;;
17494;SDS011;8864;51.970;4.614;2023-02-15T13:21:34;17.75;;;8.80;;
17494;SDS011;8864;51.970;4.614;2023-02-15T13:24:05;17.27;;;9.52;;
17494;SDS011;8864;51.970;4.614;2023-02-15T13:26:42;18.17;;;8.20;;
17494;SDS011;8864;51.970;4.614;2023-02-15T13:29:13;17.35;;;8.43;;
17494;SDS011;8864;51.970;4.614;2023-02-15T13:31:46;17.85;;;9.40;;
17494;SDS011;8864;51.970;4.614;2023-02-15T13:34:14;15.43;;;8.40;;
17494;SDS011;8864;51.970;4.614;2023-02-15T13:36:49;17.42;;;8.98;;
17494;SDS011;8864;51.970;4.614;2023-02-15T13:39:25;15.93;;;8.63;;
17494;SDS011;8864;51.970;4.614;2023-02-15T13:41:58;15.75;;;8.02;;
17494;SDS011;8864;51.970;4.614;2023-02-15T13:47:30;14.77;;;8.15;;
17494;SDS011;8864;51.970;4.614;2023-02-15T13:50:19;17.33;;;8.05;;
17494;SDS011;8864;51.970;4.614;2023-02-15T13:53:16;17.45;;;8.38;;
17494;SDS011;8864;51.970;4.614;2023-02-15T13:55:52;14.90;;;7.85;;
17494;SDS011;8864;51.970;4.614;2023-02-15T13:58:26;16.30;;;8.90;;
17494;SDS011;8864;51.970;4.614;2023-02-15T14:01:39;20.35;;;8.25;;
17494;SDS011;8864;51.970;4.614;2023-02-15T14:04:21;18.08;;;8.73;;
17494;SDS011;8864;51.970;4.614;2023-02-15T14:07:07;17.15;;;9.07;;
17494;SDS011;8864;51.970;4.614;2023-02-15T14:10:08;16.15;;;8.23;;
17494;SDS011;8864;51.970;4.614;2023-02-15T14:12:53;16.67;;;9.10;;
17494;SDS011;8864;51.970;4.614;2023-02-15T14:15:33;18.60;;;9.35;;
17494;SDS011;8864;51.970;4.614;2023-02-15T14:18:10;17.02;;;8.80;;
17494;SDS011;8864;51.970;4.614;2023-02-15T14:20:47;18.02;;;8.85;;
17494;SDS011;8864;51.970;4.614;2023-02-15T14:23:30;19.27;;;8.57;;
17494;SDS011;8864;51.970;4.614;2023-02-15T14:26:20;18.50;;;8.80;;
17494;SDS011;8864;51.970;4.614;2023-02-15T14:28:58;17.73;;;8.80;;
17494;SDS011;8864;51.970;4.614;2023-02-15T14:31:38;20.10;;;9.05;;
17494;SDS011;8864;51.970;4.614;2023-02-15T14:34:11;18.88;;;8.95;;
17494;SDS011;8864;51.970;4.614;2023-02-15T14:36:46;18.55;;;9.07;;
17494;SDS011;8864;51.970;4.614;2023-02-15T14:39:17;19.15;;;9.57;;
17494;SDS011;8864;51.970;4.614;2023-02-15T14:42:17;18.75;;;9.32;;
17494;SDS011;8864;51.970;4.614;2023-02-15T14:44:53;17.30;;;9.02;;
17494;SDS011;8864;51.970;4.614;2023-02-15T14:47:29;20.73;;;9.80;;
17494;SDS011;8864;51.970;4.614;2023-02-15T14:53:15;21.15;;;9.43;;
17494;SDS011;8864;51.970;4.614;2023-02-15T14:55:43;20.63;;;9.98;;
17494;SDS011;8864;51.970;4.614;2023-02-15T14:58:15;19.50;;;9.95;;
17494;SDS011;8864;51.970;4.614;2023-02-15T15:00:42;18.35;;;9.93;;
17494;SDS011;8864;51.970;4.614;2023-02-15T15:03:11;21.77;;;10.05;;
17494;SDS011;8864;51.970;4.614;2023-02-15T15:05:52;16.25;;;10.02;;
17494;SDS011;8864;51.970;4.614;2023-02-15T15:08:24;19.67;;;9.63;;
17494;SDS011;8864;51.970;4.614;2023-02-15T15:10:57;19.45;;;9.93;;
17494;SDS011;8864;51.970;4.614;2023-02-15T15:14:07;20.00;;;10.68;;
17494;SDS011;8864;51.970;4.614;2023-02-15T15:16:48;21.13;;;11.50;;
17494;SDS011;8864;51.970;4.614;2023-02-15T15:22:25;23.38;;;11.85;;
17494;SDS011;8864;51.970;4.614;2023-02-15T15:24:55;21.40;;;11.23;;
17494;SDS011;8864;51.970;4.614;2023-02-15T15:27:36;24.52;;;12.30;;
17494;SDS011;8864;51.970;4.614;2023-02-15T15:33:46;25.10;;;11.77;;
17494;SDS011;8864;51.970;4.614;2023-02-15T15:39:53;23.55;;;12.55;;
17494;SDS011;8864;51.970;4.614;2023-02-15T15:42:50;27.88;;;13.48;;
17494;SDS011;8864;51.970;4.614;2023-02-15T15:48:28;25.90;;;12.52;;
17494;SDS011;8864;51.970;4.614;2023-02-15T15:51:12;24.55;;;12.18;;
17494;SDS011;8864;51.970;4.614;2023-02-15T15:53:46;24.20;;;12.38;;
17494;SDS011;8864;51.970;4.614;2023-02-15T15:56:24;26.50;;;13.07;;
17494;SDS011;8864;51.970;4.614;2023-02-15T15:58:56;25.98;;;12.98;;
17494;SDS011;8864;51.970;4.614;2023-02-15T16:01:27;27.98;;;13.38;;
17494;SDS011;8864;51.970;4.614;2023-02-15T16:03:56;27.52;;;13.82;;
17494;SDS011;8864;51.970;4.614;2023-02-15T16:06:30;29.52;;;13.55;;